Time;durP1;ratioP1;P1;durP2;ratioP2;P2;SDS_P1;SDS_P2;PMS_P1;PMS_P2;Temp;Humidity;BMP_temperature;BMP_pressure;BME280_temperature;BME280_humidity;BME280_pressure;Samples;Min_cycle;Max_cycle;Signal;HPM_P1;HPM_P2
2022/10/08 00:01:29;;;;;;;7.60;5.20;;;;;;;;;;105407;1289;26449;-35
2022/10/08 00:04:02;;;;;;;6.40;4.60;;;;;;;;;;105367;1282;25400;-36
2022/10/08 00:06:34;;;;;;;6.40;4.90;;;;;;;;;;105358;1281;25461;-36
2022/10/08 00:09:08;;;;;;;6.40;5.10;;;;;;;;;;105402;1289;22611;-36
2022/10/08 00:11:42;;;;;;;6.60;5.00;;;;;;;;;;105380;1289;22477;-35
2022/10/08 00:14:16;;;;;;;6.30;4.70;;;;;;;;;;105359;1288;22496;-34
2022/10/08 00:16:48;;;;;;;6.80;4.90;;;;;;;;;;105391;1288;25372;-34
2022/10/08 00:19:20;;;;;;;5.80;4.50;;;;;;;;;;105429;1282;25242;-35
2022/10/08 00:21:55;;;;;;;6.20;5.00;;;;;;;;;;105430;1282;22471;-34
2022/10/08 00:24:28;;;;;;;6.50;5.00;;;;;;;;;;105307;1291;22489;-34
2022/10/08 00:27:00;;;;;;;6.70;4.50;;;;;;;;;;105406;1282;22484;-35
2022/10/08 00:29:33;;;;;;;6.70;5.40;;;;;;;;;;105398;1281;22465;-34
2022/10/08 00:32:05;;;;;;;6.80;4.80;;;;;;;;;;105387;1281;22472;-34
2022/10/08 00:34:38;;;;;;;6.60;5.00;;;;;;;;;;105356;1282;22545;-34
2022/10/08 00:37:13;;;;;;;6.30;4.60;;;;;;;;;;105411;1285;22470;-35
2022/10/08 00:39:46;;;;;;;6.70;5.10;;;;;;;;;;105377;1285;22508;-36
2022/10/08 00:42:18;;;;;;;7.70;4.90;;;;;;;;;;105361;1282;25184;-34
2022/10/08 00:44:58;;;;;;;6.20;5.00;;;;;;;;;;105283;1282;22474;-36
2022/10/08 00:47:40;;;;;;;6.50;4.50;;;;;;;;;;105330;1289;22487;-34
2022/10/08 00:50:26;;;;;;;6.20;4.80;;;;;;;;;;105366;1281;23283;-34
2022/10/08 00:53:02;;;;;;;6.00;4.60;;;;;;;;;;105319;1289;22490;-34
2022/10/08 00:55:41;;;;;;;7.20;4.80;;;;;;;;;;105345;1282;22466;-35
2022/10/08 00:58:21;;;;;;;6.30;4.80;;;;;;;;;;105362;1281;22482;-34
2022/10/08 01:00:54;;;;;;;6.80;5.10;;;;;;;;;;105366;1282;23704;-35
2022/10/08 01:03:26;;;;;;;6.30;4.90;;;;;;;;;;105369;1288;23847;-34
2022/10/08 01:06:09;;;;;;;6.40;4.70;;;;;;;;;;105167;1291;23849;-34
2022/10/08 01:08:51;;;;;;;6.00;5.00;;;;;;;;;;105208;1291;22911;-34
2022/10/08 01:11:38;;;;;;;6.00;4.50;;;;;;;;;;105227;1284;26427;-35
2022/10/08 01:14:25;;;;;;;6.20;5.10;;;;;;;;;;105215;1288;22487;-34
2022/10/08 01:17:07;;;;;;;7.60;5.10;;;;;;;;;;105385;1286;22476;-34
2022/10/08 01:20:15;;;;;;;7.50;5.80;;;;;;;;;;105362;1281;22471;-34
2022/10/08 01:23:18;;;;;;;5.90;4.60;;;;;;;;;;105387;1289;23437;-34
2022/10/08 01:26:02;;;;;;;;;;;;;;;;;;105339;1282;22500;-35
2022/10/08 01:28:38;;;;;;;5.90;4.70;;;;;;;;;;105194;1289;22479;-35
2022/10/08 01:31:14;;;;;;;6.00;4.60;;;;;;;;;;105346;1282;22477;-35
2022/10/08 01:33:52;;;;;;;6.30;5.10;;;;;;;;;;105336;1281;22806;-34
2022/10/08 01:36:32;;;;;;;5.80;4.40;;;;;;;;;;105346;1289;22475;-34
2022/10/08 01:39:12;;;;;;;6.10;4.90;;;;;;;;;;105397;1288;23668;-35
2022/10/08 01:41:51;;;;;;;6.10;4.40;;;;;;;;;;105398;1289;22494;-35
2022/10/08 01:44:28;;;;;;;6.60;5.00;;;;;;;;;;105400;1288;22482;-35
2022/10/08 01:47:05;;;;;;;6.70;4.60;;;;;;;;;;105322;1289;23538;-34
2022/10/08 01:49:43;;;;;;;6.50;4.70;;;;;;;;;;105325;1289;23932;-35
2022/10/08 01:52:24;;;;;;;5.70;4.50;;;;;;;;;;105324;1298;23859;-34
2022/10/08 01:55:00;;;;;;;6.20;4.40;;;;;;;;;;105244;1288;39289;-34
2022/10/08 01:57:35;;;;;;;6.70;5.00;;;;;;;;;;105418;1288;22466;-35
2022/10/08 02:00:12;;;;;;;5.60;4.40;;;;;;;;;;105359;1282;25404;-34
2022/10/08 02:02:45;;;;;;;6.60;4.70;;;;;;;;;;105373;1286;26063;-34
2022/10/08 02:05:16;;;;;;;;;;;;;;;;;;105353;1282;22480;-35
2022/10/08 02:07:48;;;;;;;6.60;4.30;;;;;;;;;;105316;1286;23977;-35
2022/10/08 02:10:24;;;;;;;6.40;4.50;;;;;;;;;;105323;1288;22485;-34
2022/10/08 02:12:56;;;;;;;5.60;4.30;;;;;;;;;;105323;1288;22680;-36
2022/10/08 02:15:41;;;;;;;6.40;4.60;;;;;;;;;;105296;1292;22558;-34
2022/10/08 02:18:18;;;;;;;5.80;4.40;;;;;;;;;;105379;1288;24182;-34
2022/10/08 02:20:56;;;;;;;6.40;4.70;;;;;;;;;;105379;1290;22478;-34
2022/10/08 02:23:35;;;;;;;6.40;4.50;;;;;;;;;;105392;1289;22476;-35
2022/10/08 02:26:11;;;;;;;5.90;4.60;;;;;;;;;;105314;1289;22487;-36
2022/10/08 02:28:53;;;;;;;6.00;4.50;;;;;;;;;;105326;1288;22498;-35
2022/10/08 02:31:33;;;;;;;5.70;4.50;;;;;;;;;;105375;1288;22488;-35
2022/10/08 02:34:14;;;;;;;5.80;4.60;;;;;;;;;;105175;1284;22468;-34
2022/10/08 02:36:52;;;;;;;6.30;4.70;;;;;;;;;;105327;1288;26575;-34
2022/10/08 02:39:27;;;;;;;6.80;4.70;;;;;;;;;;105410;1282;22660;-34
2022/10/08 02:42:07;;;;;;;6.00;4.60;;;;;;;;;;105386;1289;22508;-34
2022/10/08 02:44:43;;;;;;;5.60;4.50;;;;;;;;;;105426;1290;22605;-34
2022/10/08 02:47:20;;;;;;;6.00;4.80;;;;;;;;;;105331;1289;22481;-34
2022/10/08 02:49:59;;;;;;;6.30;5.00;;;;;;;;;;105359;1288;22510;-36
2022/10/08 02:52:35;;;;;;;6.00;4.70;;;;;;;;;;105318;1288;22473;-35
2022/10/08 02:55:18;;;;;;;5.90;4.70;;;;;;;;;;105337;1288;23015;-34
2022/10/08 02:58:01;;;;;;;6.20;4.90;;;;;;;;;;105340;1282;22487;-34
2022/10/08 03:00:39;;;;;;;7.10;4.90;;;;;;;;;;105367;1288;22475;-34
2022/10/08 03:03:15;;;;;;;6.00;4.30;;;;;;;;;;105411;1289;22510;-34
2022/10/08 03:05:52;;;;;;;5.70;4.60;;;;;;;;;;105373;1282;22490;-35
2022/10/08 03:08:25;;;;;;;6.60;4.70;;;;;;;;;;105289;1288;22722;-34
2022/10/08 03:10:57;;;;;;;5.90;4.40;;;;;;;;;;105349;1289;22527;-34
2022/10/08 03:13:30;;;;;;;6.40;4.60;;;;;;;;;;105323;1288;22800;-34
2022/10/08 03:16:03;;;;;;;5.90;5.00;;;;;;;;;;105357;1282;23994;-35
2022/10/08 03:18:36;;;;;;;5.90;4.60;;;;;;;;;;105276;1288;22472;-34
2022/10/08 03:21:12;;;;;;;6.20;4.80;;;;;;;;;;105322;1289;22487;-34
2022/10/08 03:23:44;;;;;;;6.00;4.60;;;;;;;;;;105320;1285;22527;-35
2022/10/08 03:26:19;;;;;;;5.90;4.60;;;;;;;;;;105345;1289;22471;-35
2022/10/08 03:28:53;;;;;;;5.50;4.20;;;;;;;;;;105322;1289;29268;-36
2022/10/08 03:31:25;;;;;;;6.60;5.10;;;;;;;;;;105343;1289;25468;-34
2022/10/08 03:33:57;;;;;;;6.00;4.60;;;;;;;;;;105354;1288;22477;-34
2022/10/08 03:36:30;;;;;;;5.90;4.30;;;;;;;;;;105334;1289;25382;-34
2022/10/08 03:39:02;;;;;;;5.90;4.80;;;;;;;;;;105286;1288;22472;-35
2022/10/08 03:41:34;;;;;;;6.20;4.60;;;;;;;;;;105313;1291;22492;-34
2022/10/08 03:44:09;;;;;;;5.70;4.60;;;;;;;;;;105342;1289;22487;-34
2022/10/08 03:46:41;;;;;;;6.00;4.60;;;;;;;;;;105380;1288;22554;-34
2022/10/08 03:49:13;;;;;;;5.90;4.80;;;;;;;;;;105325;1292;22515;-35
2022/10/08 03:51:45;;;;;;;5.70;4.40;;;;;;;;;;105388;1288;22471;-34
2022/10/08 03:54:17;;;;;;;5.40;4.50;;;;;;;;;;105373;1288;22484;-35
2022/10/08 03:56:49;;;;;;;6.00;4.50;;;;;;;;;;105409;1286;22452;-35
2022/10/08 03:59:22;;;;;;;5.50;4.20;;;;;;;;;;105290;1288;23754;-35
2022/10/08 04:01:54;;;;;;;5.40;4.30;;;;;;;;;;105324;1289;22459;-35
2022/10/08 04:04:26;;;;;;;6.20;4.40;;;;;;;;;;105213;1292;22632;-33
2022/10/08 04:07:01;;;;;;;6.10;4.70;;;;;;;;;;105353;1288;22469;-34
2022/10/08 04:09:33;;;;;;;6.20;4.90;;;;;;;;;;105343;1282;22459;-34
2022/10/08 04:12:08;;;;;;;5.40;3.80;;;;;;;;;;105356;1288;21701;-34
2022/10/08 04:14:42;;;;;;;5.70;4.40;;;;;;;;;;105380;1288;22544;-35
2022/10/08 04:17:14;;;;;;;6.00;4.70;;;;;;;;;;105355;1288;22504;-35
2022/10/08 04:19:48;;;;;;;5.40;4.40;;;;;;;;;;105294;1289;22631;-34
2022/10/08 04:22:20;;;;;;;5.30;4.40;;;;;;;;;;105342;1285;22497;-34
2022/10/08 04:24:52;;;;;;;6.10;4.70;;;;;;;;;;105351;1289;25200;-34
2022/10/08 04:27:26;;;;;;;6.60;4.80;;;;;;;;;;105315;1289;22451;-34
2022/10/08 04:29:58;;;;;;;5.80;4.30;;;;;;;;;;105338;1290;22487;-35
2022/10/08 04:32:30;;;;;;;5.10;4.20;;;;;;;;;;105369;1289;22480;-34
2022/10/08 04:35:02;;;;;;;6.30;4.90;;;;;;;;;;105385;1297;22496;-34
2022/10/08 04:37:34;;;;;;;5.80;4.70;;;;;;;;;;105405;1288;26550;-35
2022/10/08 04:40:09;;;;;;;5.60;4.30;;;;;;;;;;105300;1282;26521;-34
2022/10/08 04:42:41;;;;;;;5.60;4.20;;;;;;;;;;105332;1288;22491;-34
2022/10/08 04:45:16;;;;;;;6.10;4.40;;;;;;;;;;105325;1289;25435;-34
2022/10/08 04:47:48;;;;;;;5.70;4.70;;;;;;;;;;105349;1282;25271;-34
2022/10/08 04:50:20;;;;;;;6.20;4.80;;;;;;;;;;105324;1288;23703;-34
2022/10/08 04:52:54;;;;;;;5.90;4.40;;;;;;;;;;105374;1281;22596;-34
2022/10/08 04:55:26;;;;;;;7.00;5.20;;;;;;;;;;105359;1293;22489;-35
2022/10/08 04:57:59;;;;;;;6.10;4.40;;;;;;;;;;105389;1289;25268;-34
2022/10/08 05:00:31;;;;;;;5.80;4.30;;;;;;;;;;105279;1285;25493;-35
2022/10/08 05:03:03;;;;;;;6.50;4.60;;;;;;;;;;105346;1289;24261;-35
2022/10/08 05:05:35;;;;;;;6.60;4.70;;;;;;;;;;105341;1282;25369;-35
2022/10/08 05:08:07;;;;;;;7.20;5.10;;;;;;;;;;105340;1288;22501;-34
2022/10/08 05:10:39;;;;;;;7.10;4.80;;;;;;;;;;105335;1281;22491;-34
2022/10/08 05:13:11;;;;;;;6.50;5.30;;;;;;;;;;105412;1290;23004;-33
2022/10/08 05:15:43;;;;;;;6.30;5.40;;;;;;;;;;105359;1282;22443;-34
2022/10/08 05:18:19;;;;;;;7.00;4.70;;;;;;;;;;105388;1292;22472;-33
2022/10/08 05:20:51;;;;;;;6.80;5.30;;;;;;;;;;105322;1291;23853;-33
2022/10/08 05:23:23;;;;;;;6.10;5.00;;;;;;;;;;105346;1288;23715;-33
2022/10/08 05:25:54;;;;;;;7.60;5.50;;;;;;;;;;105324;1289;22526;-33
2022/10/08 05:28:26;;;;;;;6.80;5.00;;;;;;;;;;105345;1288;22472;-34
2022/10/08 05:31:03;;;;;;;7.00;5.30;;;;;;;;;;105344;1282;25243;-34
2022/10/08 05:33:35;;;;;;;7.10;5.00;;;;;;;;;;105412;1288;25507;-34
2022/10/08 05:36:17;;;;;;;6.30;5.10;;;;;;;;;;105371;1289;23711;-34
2022/10/08 05:38:50;;;;;;;6.80;5.30;;;;;;;;;;105407;1288;22468;-35
2022/10/08 05:41:27;;;;;;;7.80;5.20;;;;;;;;;;105274;1284;25226;-38
2022/10/08 05:44:01;;;;;;;6.50;5.20;;;;;;;;;;105282;1285;22468;-34
2022/10/08 05:46:35;;;;;;;5.90;4.80;;;;;;;;;;105262;1282;22465;-34
2022/10/08 05:49:13;;;;;;;7.20;5.30;;;;;;;;;;105287;1288;25345;-34
2022/10/08 05:51:45;;;;;;;6.00;5.00;;;;;;;;;;105226;1288;26490;-34
2022/10/08 05:54:18;;;;;;;6.40;5.40;;;;;;;;;;105257;1292;22524;-34
2022/10/08 05:56:50;;;;;;;6.30;4.90;;;;;;;;;;105271;1289;25194;-35
2022/10/08 05:59:26;;;;;;;6.70;4.90;;;;;;;;;;105296;1288;22498;-33
2022/10/08 06:01:59;;;;;;;6.10;5.00;;;;;;;;;;105266;1288;26832;-33
2022/10/08 06:04:33;;;;;;;6.70;5.60;;;;;;;;;;105314;1281;25249;-33
2022/10/08 06:07:05;;;;;;;6.10;5.20;;;;;;;;;;105275;1281;22469;-33
2022/10/08 06:09:38;;;;;;;6.30;5.30;;;;;;;;;;105304;1291;24010;-33
2022/10/08 06:12:12;;;;;;;7.10;5.40;;;;;;;;;;105238;1288;23851;-34
2022/10/08 06:14:45;;;;;;;6.40;5.10;;;;;;;;;;105294;1288;22571;-34
2022/10/08 06:17:16;;;;;;;6.40;5.20;;;;;;;;;;105288;1290;23845;-39
2022/10/08 06:19:48;;;;;;;6.00;5.00;;;;;;;;;;105265;1288;25257;-35
2022/10/08 06:22:20;;;;;;;6.20;5.40;;;;;;;;;;105271;1287;22482;-35
2022/10/08 06:24:52;;;;;;;6.30;5.00;;;;;;;;;;105272;1288;22466;-35
2022/10/08 06:27:24;;;;;;;6.30;5.10;;;;;;;;;;105276;1288;22473;-35
2022/10/08 06:29:59;;;;;;;6.30;5.20;;;;;;;;;;105277;1289;22524;-37
2022/10/08 06:32:31;;;;;;;7.50;5.10;;;;;;;;;;105225;1288;22477;-35
2022/10/08 06:35:03;;;;;;;6.60;4.80;;;;;;;;;;105280;1288;22484;-35
2022/10/08 06:37:35;;;;;;;6.40;5.10;;;;;;;;;;105383;1290;22546;-36
2022/10/08 06:40:11;;;;;;;6.20;5.10;;;;;;;;;;105291;1292;22428;-36
2022/10/08 06:42:44;;;;;;;7.70;5.40;;;;;;;;;;105278;1289;22457;-35
2022/10/08 06:45:16;;;;;;;7.30;5.30;;;;;;;;;;105309;1287;22461;-36
2022/10/08 06:47:50;;;;;;;10.50;5.70;;;;;;;;;;105281;1295;25279;-35
2022/10/08 06:50:24;;;;;;;7.40;5.50;;;;;;;;;;105327;1281;22453;-35
2022/10/08 06:52:57;;;;;;;6.80;5.00;;;;;;;;;;105290;1286;22479;-35
2022/10/08 06:55:29;;;;;;;6.70;5.80;;;;;;;;;;105116;1292;22703;-34
2022/10/08 06:58:03;;;;;;;6.90;5.80;;;;;;;;;;105262;1288;22450;-35
2022/10/08 07:00:36;;;;;;;7.90;6.40;;;;;;;;;;105333;1290;22480;-35
2022/10/08 07:03:12;;;;;;;8.60;7.70;;;;;;;;;;105398;1288;26236;-35
2022/10/08 07:05:43;;;;;;;10.00;9.00;;;;;;;;;;105290;1294;22429;-32
2022/10/08 07:08:16;;;;;;;10.50;9.50;;;;;;;;;;105304;1289;23874;-34
2022/10/08 07:10:49;;;;;;;12.00;11.00;;;;;;;;;;105290;1287;22466;-33
2022/10/08 07:13:22;;;;;;;;;;;;;;;;;;105294;1288;25236;-33
2022/10/08 07:16:00;;;;;;;13.30;12.10;;;;;;;;;;105097;1288;22464;-34
2022/10/08 07:18:36;;;;;;;12.90;11.60;;;;;;;;;;105060;1288;22537;-33
2022/10/08 07:21:11;;;;;;;12.90;11.60;;;;;;;;;;105228;1286;22516;-33
2022/10/08 07:23:44;;;;;;;12.70;11.60;;;;;;;;;;105367;1289;28152;-34
2022/10/08 07:26:18;;;;;;;13.10;12.00;;;;;;;;;;105297;1295;25512;-34
2022/10/08 07:28:57;;;;;;;13.80;12.50;;;;;;;;;;105105;1290;22491;-34
2022/10/08 07:31:34;;;;;;;13.00;11.70;;;;;;;;;;105268;1294;22452;-34
2022/10/08 07:34:12;;;;;;;13.40;12.00;;;;;;;;;;105217;1290;26405;-35
2022/10/08 07:36:44;;;;;;;12.30;11.00;;;;;;;;;;105140;1292;22525;-36
2022/10/08 07:39:18;;;;;;;12.90;11.60;;;;;;;;;;105249;1289;22478;-36
2022/10/08 07:41:51;;;;;;;12.40;11.30;;;;;;;;;;105255;1290;22512;-34
2022/10/08 07:44:25;;;;;;;13.10;11.80;;;;;;;;;;105418;1281;27135;-33
2022/10/08 07:46:57;;;;;;;13.40;12.10;;;;;;;;;;105293;1288;22483;-34
2022/10/08 07:49:29;;;;;;;12.80;11.50;;;;;;;;;;105321;1288;22477;-34
2022/10/08 07:52:00;;;;;;;13.00;11.70;;;;;;;;;;105320;1292;25274;-34
2022/10/08 07:54:32;;;;;;;12.60;11.50;;;;;;;;;;105233;1294;22731;-33
2022/10/08 07:57:05;;;;;;;12.20;11.10;;;;;;;;;;105247;1295;22924;-33
2022/10/08 07:59:37;;;;;;;11.40;10.40;;;;;;;;;;105232;1294;22525;-33
2022/10/08 08:02:10;;;;;;;12.70;10.80;;;;;;;;;;105294;1288;22598;-35
2022/10/08 08:04:42;;;;;;;12.20;11.10;;;;;;;;;;105259;1290;22546;-33
2022/10/08 08:07:16;;;;;;;11.30;10.20;;;;;;;;;;105247;1289;22598;-35
2022/10/08 08:09:48;;;;;;;11.80;10.70;;;;;;;;;;105250;1293;23864;-33
2022/10/08 08:12:22;;;;;;;12.40;11.10;;;;;;;;;;105227;1295;23999;-34
2022/10/08 08:14:56;;;;;;;11.70;10.50;;;;;;;;;;105234;1289;24240;-34
2022/10/08 08:17:28;;;;;;;11.20;10.50;;;;;;;;;;105241;1296;22482;-33
2022/10/08 08:20:02;;;;;;;11.40;10.30;;;;;;;;;;105282;1288;26564;-34
2022/10/08 08:22:35;;;;;;;11.40;10.30;;;;;;;;;;105282;1282;22468;-34
2022/10/08 08:25:09;;;;;;;11.20;10.20;;;;;;;;;;105245;1285;22462;-34
2022/10/08 08:27:41;;;;;;;10.90;9.90;;;;;;;;;;105327;1282;26455;-35
2022/10/08 08:30:14;;;;;;;11.10;9.90;;;;;;;;;;105293;1296;22487;-34
2022/10/08 08:32:46;;;;;;;10.90;9.90;;;;;;;;;;105310;1289;24165;-34
2022/10/08 08:35:18;;;;;;;11.00;9.80;;;;;;;;;;105280;1293;22537;-35
2022/10/08 08:37:50;;;;;;;11.10;10.00;;;;;;;;;;105298;1295;22493;-33
2022/10/08 08:40:22;;;;;;;10.60;9.60;;;;;;;;;;105305;1285;22475;-35
2022/10/08 08:42:57;;;;;;;12.70;11.50;;;;;;;;;;105269;1285;22485;-33
2022/10/08 08:45:34;;;;;;;12.00;10.90;;;;;;;;;;105214;1288;22596;-34
2022/10/08 08:48:21;;;;;;;11.20;10.10;;;;;;;;;;105269;1288;24276;-34
2022/10/08 08:50:57;;;;;;;11.90;10.70;;;;;;;;;;105267;1295;22659;-35
2022/10/08 08:53:29;;;;;;;11.80;10.60;;;;;;;;;;105256;1294;22601;-35
2022/10/08 08:56:08;;;;;;;11.80;10.70;;;;;;;;;;105281;1290;26221;-34
2022/10/08 08:58:47;;;;;;;11.70;10.60;;;;;;;;;;105306;1295;22469;-33
2022/10/08 09:01:28;;;;;;;12.00;10.80;;;;;;;;;;105303;1285;26426;-34
2022/10/08 09:04:06;;;;;;;12.10;10.90;;;;;;;;;;105231;1285;22465;-34
2022/10/08 09:06:40;;;;;;;12.40;11.20;;;;;;;;;;105287;1294;22468;-35
2022/10/08 09:09:27;;;;;;;11.50;10.40;;;;;;;;;;105261;1289;22628;-38
2022/10/08 09:12:01;;;;;;;11.60;10.50;;;;;;;;;;105264;1294;22497;-35
2022/10/08 09:14:38;;;;;;;11.20;10.10;;;;;;;;;;105222;1289;22471;-34
2022/10/08 09:17:18;;;;;;;11.70;10.50;;;;;;;;;;105274;1285;22602;-35
2022/10/08 09:19:51;;;;;;;11.30;10.20;;;;;;;;;;105288;1284;22528;-33
2022/10/08 09:22:28;;;;;;;12.20;11.00;;;;;;;;;;105269;1286;22461;-34
2022/10/08 09:25:03;;;;;;;11.50;10.40;;;;;;;;;;105239;1293;23804;-33
2022/10/08 09:27:52;;;;;;;12.20;11.00;;;;;;;;;;105247;1291;23043;-33
2022/10/08 09:30:47;;;;;;;11.30;10.20;;;;;;;;;;105295;1288;22467;-33
2022/10/08 09:33:31;;;;;;;11.60;10.50;;;;;;;;;;105142;1282;22483;-34
2022/10/08 09:36:03;;;;;;;11.60;10.50;;;;;;;;;;105255;1286;22475;-33
2022/10/08 09:38:38;;;;;;;11.60;10.40;;;;;;;;;;105289;1282;25358;-33
2022/10/08 09:41:19;;;;;;;12.00;10.80;;;;;;;;;;105273;1295;22891;-34
2022/10/08 09:44:17;;;;;;;11.40;10.30;;;;;;;;;;105242;1289;22480;-34
2022/10/08 09:46:53;;;;;;;11.30;10.20;;;;;;;;;;105254;1288;22572;-33
2022/10/08 09:49:33;;;;;;;11.10;10.00;;;;;;;;;;105245;1281;22495;-34
2022/10/08 09:52:15;;;;;;;11.60;10.50;;;;;;;;;;105296;1288;22474;-35
2022/10/08 09:54:50;;;;;;;10.70;9.70;;;;;;;;;;105175;1292;45702;-34
2022/10/08 09:57:23;;;;;;;11.70;10.60;;;;;;;;;;105297;1285;24143;-34
2022/10/08 10:00:00;;;;;;;12.00;10.70;;;;;;;;;;105262;1286;25474;-33
2022/10/08 10:02:35;;;;;;;11.40;10.10;;;;;;;;;;105282;1282;22482;-34
2022/10/08 10:05:19;;;;;;;11.30;10.20;;;;;;;;;;105288;1282;22624;-33
2022/10/08 10:07:52;;;;;;;11.60;10.50;;;;;;;;;;105246;1289;25154;-34
2022/10/08 10:10:28;;;;;;;11.10;10.10;;;;;;;;;;105257;1289;22467;-33
2022/10/08 10:13:07;;;;;;;11.70;10.60;;;;;;;;;;105284;1288;22602;-34
2022/10/08 10:15:44;;;;;;;11.20;10.20;;;;;;;;;;105220;1288;22503;-35
2022/10/08 10:18:22;;;;;;;11.30;10.20;;;;;;;;;;105281;1285;22551;-34
2022/10/08 10:20:58;;;;;;;11.20;10.10;;;;;;;;;;105275;1289;26480;-35
2022/10/08 10:23:36;;;;;;;11.00;9.90;;;;;;;;;;105344;1286;25255;-33
2022/10/08 10:26:13;;;;;;;11.40;10.30;;;;;;;;;;105265;1285;22482;-34
2022/10/08 10:28:50;;;;;;;10.60;9.50;;;;;;;;;;105237;1282;22525;-34
2022/10/08 10:31:30;;;;;;;11.00;10.00;;;;;;;;;;105250;1289;22517;-34
2022/10/08 10:34:09;;;;;;;10.80;9.80;;;;;;;;;;105266;1288;23962;-33
2022/10/08 10:36:52;;;;;;;10.20;9.20;;;;;;;;;;105279;1282;25300;-34
2022/10/08 10:39:39;;;;;;;10.50;9.50;;;;;;;;;;105257;1289;24086;-35
2022/10/08 10:42:20;;;;;;;10.60;9.60;;;;;;;;;;105286;1290;25884;-35
2022/10/08 10:44:56;;;;;;;10.70;9.60;;;;;;;;;;105284;1288;22480;-35
2022/10/08 10:47:32;;;;;;;10.90;9.80;;;;;;;;;;105248;1282;23814;-34
2022/10/08 10:50:05;;;;;;;10.30;9.30;;;;;;;;;;105226;1289;23934;-34
2022/10/08 10:52:52;;;;;;;10.00;9.00;;;;;;;;;;105254;1288;22480;-34
2022/10/08 10:55:33;;;;;;;10.40;9.50;;;;;;;;;;105253;1288;22485;-35
2022/10/08 10:58:37;;;;;;;10.10;9.10;;;;;;;;;;105241;1285;22648;-36
2022/10/08 11:01:26;;;;;;;10.90;9.90;;;;;;;;;;105291;1286;25247;-35
2022/10/08 11:04:08;;;;;;;10.20;9.20;;;;;;;;;;105263;1294;23082;-34
2022/10/08 11:06:56;;;;;;;10.60;9.50;;;;;;;;;;105253;1289;22476;-36
2022/10/08 11:09:42;;;;;;;10.50;9.50;;;;;;;;;;105266;1282;22465;-37
2022/10/08 11:12:30;;;;;;;10.30;9.30;;;;;;;;;;105268;1282;22474;-37
2022/10/08 11:15:18;;;;;;;10.40;9.40;;;;;;;;;;105263;1288;26453;-39
2022/10/08 11:18:13;;;;;;;10.00;9.10;;;;;;;;;;105229;1286;22549;-39
2022/10/08 11:20:59;;;;;;;11.00;9.80;;;;;;;;;;105266;1290;22478;-36
2022/10/08 11:23:53;;;;;;;10.40;9.30;;;;;;;;;;105288;1282;22446;-38
2022/10/08 11:26:32;;;;;;;10.50;9.60;;;;;;;;;;105275;1285;23547;-39
2022/10/08 11:29:15;;;;;;;9.90;9.00;;;;;;;;;;105186;1282;22613;-36
2022/10/08 11:31:50;;;;;;;11.10;10.00;;;;;;;;;;105249;1289;23034;-36
2022/10/08 11:34:29;;;;;;;10.30;9.30;;;;;;;;;;105256;1290;22549;-37
2022/10/08 11:37:13;;;;;;;10.20;9.20;;;;;;;;;;105267;1290;23607;-37
2022/10/08 11:39:55;;;;;;;10.80;9.60;;;;;;;;;;105426;1289;24581;-37
2022/10/08 11:42:34;;;;;;;10.40;9.30;;;;;;;;;;105269;1285;22484;-38
2022/10/08 11:45:39;;;;;;;10.50;9.10;;;;;;;;;;105273;1288;22587;-39
2022/10/08 11:48:34;;;;;;;9.90;8.90;;;;;;;;;;105227;1289;25383;-35
2022/10/08 11:51:49;;;;;;;10.00;9.00;;;;;;;;;;105267;1289;22551;-36
2022/10/08 11:54:30;;;;;;;10.40;9.40;;;;;;;;;;105256;1286;23682;-36
2022/10/08 11:57:31;;;;;;;10.40;9.40;;;;;;;;;;105264;1295;22443;-36
2022/10/08 12:00:05;;;;;;;10.40;9.10;;;;;;;;;;105260;1282;23958;-34
2022/10/08 12:02:42;;;;;;;10.10;9.00;;;;;;;;;;105293;1290;25247;-35
2022/10/08 12:05:41;;;;;;;10.30;9.30;;;;;;;;;;105330;1289;24229;-34
2022/10/08 12:08:52;;;;;;;10.10;9.10;;;;;;;;;;105248;1285;22478;-35
2022/10/08 12:11:53;;;;;;;11.20;9.20;;;;;;;;;;105240;1289;24240;-34
2022/10/08 12:14:48;;;;;;;10.90;9.40;;;;;;;;;;105236;1282;22498;-35
2022/10/08 12:17:20;;;;;;;10.80;9.60;;;;;;;;;;105253;1281;23837;-35
2022/10/08 12:20:19;;;;;;;12.00;9.80;;;;;;;;;;105238;1287;24260;-33
2022/10/08 12:23:07;;;;;;;10.10;9.10;;;;;;;;;;105305;1286;24825;-35
2022/10/08 12:25:44;;;;;;;9.80;8.70;;;;;;;;;;105303;1282;22601;-34
2022/10/08 12:28:49;;;;;;;9.30;8.40;;;;;;;;;;105305;1281;22469;-35
2022/10/08 12:31:32;;;;;;;10.00;9.00;;;;;;;;;;105367;1289;24976;-35
2022/10/08 12:34:11;;;;;;;;;;;;;;;;;;105284;1282;22715;-34
2022/10/08 12:36:52;;;;;;;9.50;8.60;;;;;;;;;;105265;1282;22479;-35
2022/10/08 12:39:36;;;;;;;9.80;8.80;;;;;;;;;;105203;1289;22464;-35
2022/10/08 12:42:17;;;;;;;10.90;8.80;;;;;;;;;;105303;1289;22509;-35
2022/10/08 12:45:02;;;;;;;9.30;8.40;;;;;;;;;;105297;1283;22605;-33
2022/10/08 12:47:46;;;;;;;9.50;8.60;;;;;;;;;;105268;1282;22471;-34
2022/10/08 12:50:44;;;;;;;9.40;8.50;;;;;;;;;;105255;1289;24405;-35
2022/10/08 12:53:18;;;;;;;9.80;8.80;;;;;;;;;;105263;1282;25377;-35
2022/10/08 12:55:54;;;;;;;9.80;8.80;;;;;;;;;;105289;1282;22612;-35
2022/10/08 12:58:30;;;;;;;9.30;8.40;;;;;;;;;;105327;1288;25372;-35
2022/10/08 13:01:05;;;;;;;9.10;8.20;;;;;;;;;;105254;1290;24767;-33
2022/10/08 13:03:37;;;;;;;9.00;8.10;;;;;;;;;;105359;1288;25316;-33
2022/10/08 13:06:27;;;;;;;9.90;8.90;;;;;;;;;;105304;1290;22505;-33
2022/10/08 13:08:59;;;;;;;9.60;8.70;;;;;;;;;;105296;1295;22426;-34
2022/10/08 13:11:31;;;;;;;9.80;8.90;;;;;;;;;;105240;1289;25274;-33
2022/10/08 13:14:03;;;;;;;9.80;8.80;;;;;;;;;;105274;1282;22469;-34
2022/10/08 13:16:48;;;;;;;10.10;9.20;;;;;;;;;;105271;1290;23487;-33
2022/10/08 13:19:31;;;;;;;10.10;8.90;;;;;;;;;;105264;1282;23996;-33
2022/10/08 13:22:07;;;;;;;10.10;9.10;;;;;;;;;;105271;1290;22494;-35
2022/10/08 13:24:44;;;;;;;10.10;9.10;;;;;;;;;;105315;1280;22546;-34
2022/10/08 13:27:30;;;;;;;10.10;9.20;;;;;;;;;;105297;1285;23533;-34
2022/10/08 13:30:27;;;;;;;9.90;8.90;;;;;;;;;;105301;1282;22455;-34
2022/10/08 13:33:11;;;;;;;9.50;8.60;;;;;;;;;;105383;1282;22635;-34
2022/10/08 13:35:44;;;;;;;10.10;9.10;;;;;;;;;;105242;1289;22508;-34
2022/10/08 13:38:25;;;;;;;10.10;9.10;;;;;;;;;;105269;1288;23474;-34
2022/10/08 13:41:04;;;;;;;9.70;8.70;;;;;;;;;;105254;1287;26463;-33
2022/10/08 13:43:37;;;;;;;10.50;9.50;;;;;;;;;;105259;1289;26581;-34
2022/10/08 13:46:10;;;;;;;11.10;9.50;;;;;;;;;;105261;1292;23150;-34
2022/10/08 13:48:47;;;;;;;10.80;9.70;;;;;;;;;;105273;1286;22484;-35
2022/10/08 13:51:19;;;;;;;11.70;10.50;;;;;;;;;;105273;1282;22522;-34
2022/10/08 13:53:51;;;;;;;11.40;10.20;;;;;;;;;;105272;1289;22540;-34
2022/10/08 13:56:23;;;;;;;10.80;9.70;;;;;;;;;;105267;1285;22619;-35
2022/10/08 13:58:55;;;;;;;11.70;10.00;;;;;;;;;;105261;1289;25227;-35
2022/10/08 14:01:27;;;;;;;11.70;10.40;;;;;;;;;;105288;1281;22549;-35
2022/10/08 14:03:59;;;;;;;11.70;10.50;;;;;;;;;;105257;1289;22484;-34
2022/10/08 14:06:30;;;;;;;10.80;9.70;;;;;;;;;;105275;1288;22599;-34
2022/10/08 14:09:06;;;;;;;12.50;10.50;;;;;;;;;;105275;1281;23487;-34
2022/10/08 14:11:40;;;;;;;10.80;9.80;;;;;;;;;;105247;1289;22609;-35
2022/10/08 14:14:15;;;;;;;12.00;10.70;;;;;;;;;;105249;1289;22488;-35
2022/10/08 14:16:47;;;;;;;12.70;10.90;;;;;;;;;;105216;1289;22496;-35
2022/10/08 14:19:19;;;;;;;12.40;11.10;;;;;;;;;;105266;1281;24409;-35
2022/10/08 14:21:54;;;;;;;12.20;10.70;;;;;;;;;;105264;1289;25386;-34
2022/10/08 14:24:26;;;;;;;12.30;11.10;;;;;;;;;;105248;1282;22689;-34
2022/10/08 14:26:58;;;;;;;11.90;10.50;;;;;;;;;;105266;1289;22475;-34
2022/10/08 14:29:33;;;;;;;11.50;10.30;;;;;;;;;;105260;1282;23302;-34
2022/10/08 14:32:07;;;;;;;11.00;9.70;;;;;;;;;;105231;1281;25320;-35
2022/10/08 14:34:39;;;;;;;12.10;10.70;;;;;;;;;;105262;1281;25335;-35
2022/10/08 14:37:12;;;;;;;12.00;10.70;;;;;;;;;;105271;1285;22753;-34
2022/10/08 14:39:44;;;;;;;11.90;10.70;;;;;;;;;;105289;1281;22640;-35
2022/10/08 14:42:16;;;;;;;12.50;10.60;;;;;;;;;;105268;1282;22469;-35
2022/10/08 14:44:52;;;;;;;11.60;10.00;;;;;;;;;;105267;1282;23856;-35
2022/10/08 14:47:23;;;;;;;11.70;10.30;;;;;;;;;;105262;1289;22488;-35
2022/10/08 14:49:56;;;;;;;11.10;9.90;;;;;;;;;;105261;1282;22475;-35
2022/10/08 14:52:27;;;;;;;11.50;10.30;;;;;;;;;;105289;1281;22602;-35
2022/10/08 14:54:59;;;;;;;11.70;10.50;;;;;;;;;;105215;1281;22474;-34
2022/10/08 14:57:31;;;;;;;13.00;10.70;;;;;;;;;;105274;1282;22560;-33
2022/10/08 15:00:03;;;;;;;11.30;10.20;;;;;;;;;;105256;1288;22490;-35
2022/10/08 15:02:35;;;;;;;10.70;9.60;;;;;;;;;;105285;1285;22495;-36
2022/10/08 15:05:09;;;;;;;10.60;9.50;;;;;;;;;;105252;1281;23838;-35
2022/10/08 15:07:41;;;;;;;10.80;9.70;;;;;;;;;;105251;1288;22538;-34
2022/10/08 15:10:13;;;;;;;10.30;9.30;;;;;;;;;;105285;1286;22566;-37
2022/10/08 15:12:45;;;;;;;11.00;9.90;;;;;;;;;;105247;1282;22517;-36
2022/10/08 15:15:18;;;;;;;10.70;9.70;;;;;;;;;;105252;1286;22698;-36
2022/10/08 15:17:50;;;;;;;10.50;9.40;;;;;;;;;;105300;1288;22579;-35